Back to Top

Language: 

My Weather Underground Personal Weather Station Historical Data with Graphs...

Delerius Weather Station Historical Data
Daily Summary for August 17, 2017 Units:  Metric    English   Both
« Previous Day
Next Day »
Daily Weekly Monthly Yearly Custom
  High: Low: Average:
Temperature: 23.9 °C 14 °C 17.9 °C
Dew Point: 17 °C 10.7 °C 13.8 °C
Humidity: 96 % 49 % 78 %
Wind Speed: 22.5 km/h 0 km/h 10.9 km/h
Wind Gust: 38.6 km/h - -
Wind:- - SW
Pressure: 1010 hPa 1006.3 hPa -
Precipitation: 7.37 mm    
Historical Graphs
 
 
Tabular Data for August 17, 2017
Time Temperature Dew Point Pressure Wind Wind Speed Wind Gust Humidity Rainfall Rate (Hourly) solar Conditions
00:03 16.7 °C 12.1 °C 1010 hPa South 12.9 km/h 24.1 km/h 74 % 0 mm 0 W/m2
00:08 16.6 °C 11.9 °C 1009.7 hPa South 12.9 km/h 24.1 km/h 74 % 0 mm 0 W/m2
00:12 16.6 °C 11.9 °C 1009.7 hPa SSW 14.5 km/h 24.1 km/h 74 % 0 mm 0 W/m2
00:17 16.6 °C 11.9 °C 1009.7 hPa South 14.5 km/h 32.2 km/h 74 % 0 mm 0 W/m2
00:22 16.6 °C 11.7 °C 1009.7 hPa South 14.5 km/h 32.2 km/h 73 % 0 mm 0 W/m2
00:27 16.6 °C 11.7 °C 1009.7 hPa SSW 14.5 km/h 30.6 km/h 73 % 0 mm 0 W/m2
00:32 16.6 °C 11.7 °C 1009.4 hPa South 12.9 km/h 29 km/h 73 % 0 mm 0 W/m2
00:37 16.6 °C 11.9 °C 1009.4 hPa SSW 14.5 km/h 33.8 km/h 74 % 0 mm 0 W/m2
00:42 16.4 °C 11.9 °C 1009.4 hPa SW 19.3 km/h 33.8 km/h 75 % 0.25 mm 0 W/m2
00:47 16.2 °C 12.3 °C 1009.4 hPa SSW 19.3 km/h 32.2 km/h 78 % 0.25 mm 0 W/m2
00:52 15.9 °C 12.3 °C 1009.4 hPa SSW 16.1 km/h 29 km/h 79 % 0.25 mm 0 W/m2
00:57 15.7 °C 12.4 °C 1009.4 hPa SSW 17.7 km/h 37 km/h 81 % 0.25 mm 0 W/m2
01:02 15.3 °C 12.6 °C 1009 hPa SSW 19.3 km/h 37 km/h 84 % 0.76 mm 0 W/m2
01:07 14.9 °C 12.6 °C 1009 hPa SSW 16.1 km/h 29 km/h 86 % 1.02 mm 0 W/m2
01:12 14.7 °C 12.7 °C 1009 hPa SSW 14.5 km/h 29 km/h 88 % 1.02 mm 0 W/m2
01:17 14.6 °C 12.8 °C 1009 hPa SSW 12.9 km/h 22.5 km/h 89 % 1.02 mm 0 W/m2
01:22 14.5 °C 12.7 °C 1008.7 hPa SSW 11.3 km/h 20.9 km/h 89 % 1.27 mm 0 W/m2
01:27 14.4 °C 12.8 °C 1008.7 hPa SSW 9.7 km/h 17.7 km/h 90 % 1.52 mm 0 W/m2
01:32 14.3 °C 12.7 °C 1008.7 hPa SSW 11.3 km/h 17.7 km/h 90 % 1.78 mm 0 W/m2
01:37 14.3 °C 12.8 °C 1008.7 hPa SSW 11.3 km/h 22.5 km/h 91 % 2.03 mm 0 W/m2
01:42 14.2 °C 12.8 °C 1008.7 hPa SSW 11.3 km/h 22.5 km/h 91 % 1.78 mm 0 W/m2
01:47 14.2 °C 12.9 °C 1008.4 hPa South 6.4 km/h 17.7 km/h 92 % 2.29 mm 0 W/m2
01:52 14.2 °C 12.9 °C 1008.4 hPa South 4.8 km/h 12.9 km/h 92 % 2.29 mm 0 W/m2
01:57 14.2 °C 12.9 °C 1008.4 hPa SSE 8 km/h 19.3 km/h 92 % 2.29 mm 0 W/m2
02:02 14.1 °C 12.8 °C 1008 hPa SSE 11.3 km/h 19.3 km/h 92 % 1.78 mm 0 W/m2
02:07 14.1 °C 12.8 °C 1008 hPa South 9.7 km/h 17.7 km/h 92 % 1.52 mm 0 W/m2
02:12 14.1 °C 13 °C 1008 hPa South 8 km/h 20.9 km/h 93 % 1.52 mm 0 W/m2
02:17 14.1 °C 13 °C 1008 hPa South 9.7 km/h 24.1 km/h 93 % 1.52 mm 0 W/m2
02:22 14.1 °C 12.8 °C 1008 hPa South 12.9 km/h 25.7 km/h 92 % 1.52 mm 0 W/m2
02:27 14.1 °C 12.8 °C 1008 hPa South 14.5 km/h 25.7 km/h 92 % 1.27 mm 0 W/m2
02:32 14.1 °C 12.8 °C 1008 hPa South 12.9 km/h 25.7 km/h 92 % 1.02 mm 0 W/m2
02:37 14.1 °C 12.8 °C 1008 hPa South 8 km/h 22.5 km/h 92 % 0.76 mm 0 W/m2
02:42 14.1 °C 12.8 °C 1008 hPa South 8 km/h 14.5 km/h 92 % 0.51 mm 0 W/m2
02:47 14.1 °C 12.8 °C 1008 hPa SSW 9.7 km/h 19.3 km/h 92 % 0.51 mm 0 W/m2
02:52 14.1 °C 13 °C 1008 hPa SSW 11.3 km/h 29 km/h 93 % 0.51 mm 0 W/m2
02:57 14.1 °C 13 °C 1007.7 hPa SSW 12.9 km/h 29 km/h 93 % 0.51 mm 0 W/m2
03:02 14.1 °C 12.8 °C 1008 hPa SSW 11.3 km/h 20.9 km/h 92 % 0.51 mm 0 W/m2
03:07 14.1 °C 13 °C 1008 hPa SSW 8 km/h 14.5 km/h 93 % 0.51 mm 0 W/m2
03:13 14.1 °C 13 °C 1008 hPa SSW 6.4 km/h 14.5 km/h 93 % 0.51 mm 0 W/m2
03:18 14.1 °C 13 °C 1007.7 hPa SSW 8 km/h 14.5 km/h 93 % 0.25 mm 0 W/m2
03:23 14.1 °C 13 °C 1007.7 hPa SSW 9.7 km/h 16.1 km/h 93 % 0.25 mm 0 W/m2
03:28 14.1 °C 13 °C 1007.7 hPa SSW 8 km/h 16.1 km/h 93 % 0.25 mm 0 W/m2
03:33 14.1 °C 13 °C 1007.7 hPa South 6.4 km/h 14.5 km/h 93 % 0.25 mm 0 W/m2
03:38 14.1 °C 13 °C 1007.7 hPa SSE 4.8 km/h 11.3 km/h 93 % 0.51 mm 0 W/m2
03:43 14 °C 12.9 °C 1007.3 hPa SSE 1.6 km/h 9.7 km/h 93 % 0.51 mm 0 W/m2
03:48 14 °C 12.9 °C 1007.3 hPa SE 3.2 km/h 11.3 km/h 93 % 0.51 mm 0 W/m2
03:53 14 °C 12.9 °C 1007.3 hPa ESE 3.2 km/h 12.9 km/h 93 % 0.51 mm 0 W/m2
03:58 14 °C 12.9 °C 1007.3 hPa ESE 6.4 km/h 14.5 km/h 93 % 0.25 mm 0 W/m2
04:03 14 °C 12.9 °C 1007.3 hPa ESE 8 km/h 14.5 km/h 93 % 0.25 mm 0 W/m2
04:08 14 °C 12.9 °C 1007 hPa SE 8 km/h 14.5 km/h 93 % 0.25 mm 0 W/m2
04:13 14 °C 13.1 °C 1007 hPa SSE 8 km/h 16.1 km/h 94 % 0.25 mm 0 W/m2
04:18 14.1 °C 13.2 °C 1007 hPa South 9.7 km/h 16.1 km/h 94 % 0.25 mm 0 W/m2
04:22 14.1 °C 13.2 °C 1007 hPa South 9.7 km/h 17.7 km/h 94 % 0.25 mm 0 W/m2
04:27 14.1 °C 13.2 °C 1007 hPa SSE 9.7 km/h 17.7 km/h 94 % 0.25 mm 0 W/m2
04:31 14.1 °C 13.2 °C 1007 hPa SSE 8 km/h 14.5 km/h 94 % 0.51 mm 0 W/m2
04:36 14.1 °C 13.2 °C 1007 hPa South 6.4 km/h 14.5 km/h 94 % 0.25 mm 0 W/m2
04:41 14.2 °C 13.2 °C 1007 hPa SSW 6.4 km/h 14.5 km/h 94 % 0.25 mm 0 W/m2
04:46 14.2 °C 13.2 °C 1006.7 hPa South 6.4 km/h 12.9 km/h 94 % 0.51 mm 0 W/m2
04:51 14.1 °C 13.2 °C 1006.7 hPa South 8 km/h 12.9 km/h 94 % 0.51 mm 0 W/m2
04:57 14.1 °C 13.2 °C 1006.7 hPa South 6.4 km/h 12.9 km/h 94 % 0.76 mm 0 W/m2
05:02 14.1 °C 13.2 °C 1006.7 hPa South 8 km/h 14.5 km/h 94 % 1.02 mm 0 W/m2
05:07 14.1 °C 13.2 °C 1006.7 hPa SSE 8 km/h 14.5 km/h 94 % 1.02 mm 0 W/m2
05:12 14.1 °C 13.3 °C 1006.7 hPa South 6.4 km/h 12.9 km/h 95 % 1.02 mm 0 W/m2
05:17 14.1 °C 13.3 °C 1006.3 hPa South 8 km/h 16.1 km/h 95 % 1.02 mm 0 W/m2
05:22 14.1 °C 13.3 °C 1006.3 hPa South 9.7 km/h 16.1 km/h 95 % 1.27 mm 0 W/m2
05:27 14.1 °C 13.3 °C 1006.3 hPa South 6.4 km/h 14.5 km/h 95 % 1.27 mm 0 W/m2
05:32 14.1 °C 13.3 °C 1006.3 hPa South 6.4 km/h 11.3 km/h 95 % 1.02 mm 0 W/m2
05:37 14.1 °C 13.3 °C 1006.3 hPa South 8 km/h 12.9 km/h 95 % 1.27 mm 0 W/m2
05:42 14.2 °C 13.4 °C 1006.3 hPa South 6.4 km/h 12.9 km/h 95 % 1.52 mm 0 W/m2
05:47 14.2 °C 13.4 °C 1006.3 hPa SSW 4.8 km/h 12.9 km/h 95 % 1.27 mm 0 W/m2
05:52 14.2 °C 13.4 °C 1006.3 hPa SW 6.4 km/h 11.3 km/h 95 % 1.02 mm 0 W/m2
05:57 14.2 °C 13.4 °C 1006.3 hPa SW 4.8 km/h 11.3 km/h 95 % 1.02 mm 0 W/m2
06:02 14.2 °C 13.4 °C 1006.3 hPa SSW 3.2 km/h 11.3 km/h 95 % 0.76 mm 0 W/m2
06:07 14.2 °C 13.4 °C 1006.3 hPa SSE 4.8 km/h 11.3 km/h 95 % 1.02 mm 0 W/m2
06:12 14.2 °C 13.4 °C 1006.3 hPa SSE 4.8 km/h 11.3 km/h 95 % 1.02 mm 0 W/m2
06:17 14.2 °C 13.4 °C 1006.3 hPa SSE 3.2 km/h 9.7 km/h 95 % 1.02 mm 0 W/m2
06:22 14.2 °C 13.4 °C 1006.7 hPa SW 3.2 km/h 9.7 km/h 95 % 0.76 mm 7 W/m2
06:27 14.3 °C 13.5 °C 1006.3 hPa WSW 4.8 km/h 9.7 km/h 95 % 0.76 mm 5 W/m2
06:32 14.3 °C 13.5 °C 1006.3 hPa SW 4.8 km/h 11.3 km/h 95 % 0.51 mm 9 W/m2
06:37 14.3 °C 13.5 °C 1006.3 hPa SW 3.2 km/h 11.3 km/h 95 % 0.51 mm 16 W/m2
06:42 14.4 °C 13.8 °C 1006.3 hPa SSW 1.6 km/h 8 km/h 96 % 0.51 mm 18 W/m2
06:47 14.4 °C 13.8 °C 1006.3 hPa SSW 1.6 km/h 8 km/h 96 % 0.51 mm 19 W/m2
06:52 14.4 °C 13.8 °C 1006.3 hPa SSE 3.2 km/h 11.3 km/h 96 % 0.51 mm 23 W/m2
06:58 14.5 °C 13.9 °C 1006.3 hPa SSE 6.4 km/h 12.9 km/h 96 % 0.25 mm 35 W/m2
07:03 14.5 °C 13.9 °C 1006.3 hPa SSE 6.4 km/h 12.9 km/h 96 % 0.25 mm 46 W/m2
07:08 14.6 °C 13.9 °C 1006.3 hPa South 4.8 km/h 11.3 km/h 96 % 0 mm 60 W/m2
07:13 14.6 °C 13.9 °C 1006.3 hPa SSW 6.4 km/h 16.1 km/h 96 % 0 mm 67 W/m2
07:18 14.7 °C 14.1 °C 1006.3 hPa SSW 6.4 km/h 16.1 km/h 96 % 0 mm 58 W/m2
07:23 14.8 °C 14.2 °C 1006.3 hPa SSW 9.7 km/h 17.7 km/h 96 % 0 mm 69 W/m2
07:28 14.9 °C 14.3 °C 1006.3 hPa SSW 11.3 km/h 17.7 km/h 96 % 0 mm 51 W/m2
07:33 15 °C 14.4 °C 1006.3 hPa SSW 11.3 km/h 19.3 km/h 96 % 0 mm 46 W/m2
07:38 15.1 °C 14.4 °C 1006.3 hPa SSW 9.7 km/h 19.3 km/h 96 % 0 mm 63 W/m2
07:43 15.1 °C 14.4 °C 1006.3 hPa SSW 8 km/h 16.1 km/h 96 % 0 mm 84 W/m2
07:48 15.2 °C 14.6 °C 1006.3 hPa SSW 8 km/h 16.1 km/h 96 % 0 mm 116 W/m2
07:53 15.3 °C 14.7 °C 1006.3 hPa South 3.2 km/h 12.9 km/h 96 % 0 mm 97 W/m2
07:58 15.3 °C 14.7 °C 1006.3 hPa Calm   8 km/h 96 % 0 mm 107 W/m2
08:03 15.4 °C 14.8 °C 1006.3 hPa Calm   6.4 km/h 96 % 0 mm 120 W/m2
08:08 15.5 °C 14.9 °C 1006.3 hPa South 1.6 km/h 9.7 km/h 96 % 0 mm 125 W/m2
08:13 15.6 °C 14.9 °C 1006.3 hPa South 1.6 km/h 9.7 km/h 96 % 0 mm 132 W/m2
08:18 15.7 °C 15.1 °C 1006.3 hPa SW 4.8 km/h 12.9 km/h 96 % 0 mm 114 W/m2
08:23 15.8 °C 15.2 °C 1006.7 hPa SW 8 km/h 16.1 km/h 96 % 0 mm 158 W/m2
08:28 15.8 °C 15.2 °C 1006.7 hPa SSW 9.7 km/h 16.1 km/h 96 % 0 mm 156 W/m2
08:33 15.9 °C 15.3 °C 1006.7 hPa SSW 11.3 km/h 17.7 km/h 96 % 0 mm 192 W/m2
08:38 16 °C 15.2 °C 1006.7 hPa SSW 11.3 km/h 17.7 km/h 95 % 0 mm 193 W/m2
08:43 16.1 °C 15.3 °C 1006.7 hPa SSW 11.3 km/h 17.7 km/h 95 % 0 mm 72 W/m2
08:48 16.2 °C 15.4 °C 1006.7 hPa SSW 8 km/h 17.7 km/h 95 % 0 mm 67 W/m2
08:53 16.2 °C 15.4 °C 1006.7 hPa South 6.4 km/h 14.5 km/h 95 % 0 mm 121 W/m2
08:58 16.2 °C 15.4 °C 1006.7 hPa South 4.8 km/h 12.9 km/h 95 % 0 mm 49 W/m2
09:03 16.2 °C 15.4 °C 1006.7 hPa South 3.2 km/h 9.7 km/h 95 % 0 mm 40 W/m2
09:08 16.2 °C 15.4 °C 1006.7 hPa South 1.6 km/h 9.7 km/h 95 % 0 mm 58 W/m2
09:13 16.2 °C 15.4 °C 1006.7 hPa South 1.6 km/h 8 km/h 95 % 0 mm 67 W/m2
09:18 16.2 °C 15.4 °C 1006.7 hPa South 1.6 km/h 6.4 km/h 95 % 0 mm 79 W/m2
09:23 16.3 °C 15.5 °C 1006.7 hPa Calm   3.2 km/h 95 % 0 mm 123 W/m2
09:28 16.4 °C 15.6 °C 1006.7 hPa Calm     95 % 0 mm 162 W/m2
09:33 16.5 °C 15.7 °C 1006.7 hPa Calm     95 % 0 mm 95 W/m2
09:39 16.6 °C 15.8 °C 1006.7 hPa Calm   3.2 km/h 95 % 0 mm 162 W/m2
09:44 16.7 °C 15.9 °C 1006.7 hPa Calm   6.4 km/h 95 % 0 mm 125 W/m2
09:49 16.8 °C 16 °C 1006.7 hPa Calm   6.4 km/h 95 % 0 mm 151 W/m2
09:54 16.9 °C 16.1 °C 1006.7 hPa South 1.6 km/h 6.4 km/h 95 % 0 mm 241 W/m2
09:59 17 °C 16 °C 1006.7 hPa South 1.6 km/h 6.4 km/h 94 % 0 mm 162 W/m2
10:04 17.1 °C 16.1 °C 1007 hPa Calm   4.8 km/h 94 % 0 mm 202 W/m2
10:09 17.2 °C 16.2 °C 1007 hPa Calm   3.2 km/h 94 % 0 mm 244 W/m2
10:14 17.3 °C 16.2 °C 1007 hPa Calm   3.2 km/h 93 % 0 mm 225 W/m2
10:19 17.4 °C 16.3 °C 1007 hPa Calm   3.2 km/h 93 % 0 mm 135 W/m2
10:24 17.5 °C 16.3 °C 1007 hPa Calm   1.6 km/h 93 % 0 mm 102 W/m2
10:29 17.5 °C 16.2 °C 1007 hPa Calm   6.4 km/h 92 % 0 mm 181 W/m2
10:34 17.6 °C 16.3 °C 1007 hPa Calm   6.4 km/h 92 % 0 mm 200 W/m2
10:39 17.8 °C 16.7 °C 1007 hPa Calm   6.4 km/h 93 % 0 mm 304 W/m2
10:44 18.1 °C 16.8 °C 1007 hPa WNW 3.2 km/h 12.9 km/h 92 % 0 mm 234 W/m2
10:49 18.2 °C 16.7 °C 1007 hPa WNW 8 km/h 16.1 km/h 91 % 0 mm 243 W/m2
10:54 18.3 °C 16.6 °C 1007 hPa WNW 9.7 km/h 16.1 km/h 90 % 0 mm 236 W/m2
10:59 18.5 °C 16.8 °C 1007 hPa WNW 8 km/h 14.5 km/h 90 % 0 mm 318 W/m2
11:04 18.6 °C 16.8 °C 1007 hPa WNW 9.7 km/h 16.1 km/h 89 % 0 mm 255 W/m2
11:09 18.8 °C 16.8 °C 1007 hPa WNW 11.3 km/h 17.7 km/h 88 % 0 mm 320 W/m2
11:14 19.1 °C 16.9 °C 1007 hPa WNW 12.9 km/h 22.5 km/h 87 % 0 mm 313 W/m2
11:19 19.3 °C 16.7 °C 1007 hPa West 14.5 km/h 22.5 km/h 85 % 0 mm 722 W/m2
11:24 19.3 °C 16.3 °C 1007 hPa West 14.5 km/h 22.5 km/h 83 % 0 mm 155 W/m2
11:29 19.3 °C 16.3 °C 1007 hPa West 14.5 km/h 22.5 km/h 83 % 0 mm 835 W/m2
11:34 19.6 °C 17 °C 1007 hPa West 12.9 km/h 20.9 km/h 85 % 0 mm 958 W/m2
11:39 19.9 °C 16.7 °C 1007 hPa WSW 12.9 km/h 20.9 km/h 82 % 0 mm 939 W/m2
11:44 20.2 °C 16.8 °C 1007 hPa WSW 14.5 km/h 20.9 km/h 81 % 0 mm 912 W/m2
11:49 20.6 °C 17 °C 1007 hPa West 11.3 km/h 19.3 km/h 80 % 0 mm 919 W/m2
11:54 20.9 °C 16.5 °C 1007 hPa WNW 11.3 km/h 19.3 km/h 76 % 0 mm 875 W/m2
11:59 21.1 °C 16.5 °C 1007 hPa WNW 12.9 km/h 19.3 km/h 75 % 0 mm 833 W/m2
12:04 21.4 °C 16.3 °C 1007 hPa West 11.3 km/h 24.1 km/h 73 % 0 mm 835 W/m2
12:09 21.4 °C 15.9 °C 1007 hPa West 16.1 km/h 25.7 km/h 71 % 0 mm 851 W/m2
12:14 21.5 °C 15.3 °C 1007 hPa West 17.7 km/h 25.7 km/h 68 % 0 mm 835 W/m2
12:19 21.6 °C 15.9 °C 1007 hPa West 12.9 km/h 20.9 km/h 70 % 0 mm 847 W/m2
12:24 21.7 °C 15.1 °C 1007 hPa West 12.9 km/h 24.1 km/h 66 % 0 mm 828 W/m2
12:29 21.9 °C 15 °C 1007 hPa West 16.1 km/h 25.7 km/h 65 % 0 mm 830 W/m2
12:34 22.1 °C 15.2 °C 1007 hPa West 16.1 km/h 25.7 km/h 65 % 0 mm 849 W/m2
12:39 22.1 °C 15.4 °C 1007 hPa West 14.5 km/h 25.7 km/h 66 % 0 mm 844 W/m2
12:44 22.3 °C 14.9 °C 1007 hPa West 14.5 km/h 24.1 km/h 63 % 0 mm 896 W/m2
12:49 22.4 °C 15 °C 1007 hPa West 12.9 km/h 24.1 km/h 63 % 0 mm 684 W/m2
12:54 22.5 °C 14.6 °C 1007 hPa West 12.9 km/h 20.9 km/h 61 % 0 mm 824 W/m2
12:59 22.7 °C 14.6 °C 1007 hPa West 12.9 km/h 25.7 km/h 60 % 0 mm 816 W/m2
13:04 22.7 °C 14.3 °C 1007 hPa West 12.9 km/h 25.7 km/h 59 % 0 mm 830 W/m2
13:09 22.8 °C 14.1 °C 1007 hPa WSW 14.5 km/h 20.9 km/h 58 % 0 mm 844 W/m2
13:14 22.9 °C 14.7 °C 1007 hPa West 12.9 km/h 20.9 km/h 60 % 0 mm 875 W/m2
13:19 23.2 °C 14.5 °C 1006.7 hPa West 12.9 km/h 22.5 km/h 58 % 0 mm 858 W/m2
13:25 23.2 °C 14.2 °C 1006.7 hPa West 14.5 km/h 24.1 km/h 57 % 0 mm 851 W/m2
13:30 23.2 °C 14.5 °C 1006.7 hPa West 12.9 km/h 24.1 km/h 58 % 0 mm 833 W/m2
13:35 23.4 °C 14.4 °C 1006.7 hPa WNW 12.9 km/h 25.7 km/h 57 % 0 mm 844 W/m2
13:40 23.6 °C 14.3 °C 1006.7 hPa WNW 14.5 km/h 25.7 km/h 56 % 0 mm 809 W/m2
13:45 23.4 °C 13.8 °C 1006.7 hPa West 12.9 km/h 24.1 km/h 55 % 0 mm 879 W/m2
13:50 23.4 °C 13.6 °C 1006.7 hPa West 14.5 km/h 22.5 km/h 54 % 0 mm 833 W/m2
13:55 23.4 °C 14.7 °C 1006.7 hPa West 12.9 km/h 20.9 km/h 58 % 0 mm 167 W/m2
14:00 23.3 °C 14.6 °C 1006.7 hPa West 12.9 km/h 20.9 km/h 58 % 0 mm 306 W/m2
14:05 23.3 °C 14.3 °C 1006.7 hPa West 11.3 km/h 20.9 km/h 57 % 0 mm 216 W/m2
14:10 23.2 °C 14.5 °C 1006.7 hPa West 11.3 km/h 19.3 km/h 58 % 0 mm 923 W/m2
14:15 23.3 °C 14.1 °C 1006.7 hPa WNW 12.9 km/h 22.5 km/h 56 % 0 mm 207 W/m2
14:20 23.3 °C 14.1 °C 1006.7 hPa WNW 12.9 km/h 24.1 km/h 56 % 0 mm 227 W/m2
14:25 23.4 °C 13.8 °C 1006.7 hPa West 12.9 km/h 24.1 km/h 55 % 0 mm 853 W/m2
14:30 23.4 °C 13.8 °C 1006.7 hPa West 12.9 km/h 22.5 km/h 55 % 0 mm 988 W/m2
14:35 23.7 °C 13.8 °C 1006.7 hPa West 12.9 km/h 20.9 km/h 54 % 0 mm 988 W/m2
14:40 23.8 °C 13.9 °C 1007 hPa West 14.5 km/h 20.9 km/h 54 % 0 mm 947 W/m2
14:45 23.9 °C 14.3 °C 1006.7 hPa WSW 12.9 km/h 20.9 km/h 55 % 0 mm 882 W/m2
14:50 23.9 °C 13.4 °C 1006.7 hPa SW 14.5 km/h 33.8 km/h 52 % 0 mm 925 W/m2
14:55 23.8 °C 13.7 °C 1006.7 hPa SW 17.7 km/h 33.8 km/h 53 % 0 mm 863 W/m2
15:00 23.7 °C 13.8 °C 1007 hPa SW 17.7 km/h 33.8 km/h 54 % 0 mm 870 W/m2
15:05 23.6 °C 14.3 °C 1007 hPa SW 17.7 km/h 33.8 km/h 56 % 0 mm 891 W/m2
15:10 23.7 °C 14.4 °C 1007 hPa WSW 14.5 km/h 25.7 km/h 56 % 0 mm 346 W/m2
15:15 23.8 °C 14.8 °C 1007 hPa West 12.9 km/h 22.5 km/h 57 % 0 mm 186 W/m2
15:20 23.3 °C 14.6 °C 1007 hPa WSW 14.5 km/h 25.7 km/h 58 % 0 mm 325 W/m2
15:25 22.9 °C 14.7 °C 1007 hPa WSW 16.1 km/h 25.7 km/h 60 % 0 mm 220 W/m2
15:30 22.8 °C 14.6 °C 1006.7 hPa West 16.1 km/h 25.7 km/h 60 % 0 mm 287 W/m2
15:35 22.8 °C 14.9 °C 1006.7 hPa West 16.1 km/h 24.1 km/h 61 % 0 mm 301 W/m2
15:40 22.9 °C 15 °C 1006.7 hPa WSW 16.1 km/h 25.7 km/h 61 % 0 mm 770 W/m2
15:45 23.1 °C 14.1 °C 1006.7 hPa WSW 19.3 km/h 37 km/h 57 % 0 mm 682 W/m2
15:50 22.9 °C 13.9 °C 1007 hPa WSW 20.9 km/h 37 km/h 57 % 0 mm 654 W/m2
15:55 23 °C 14 °C 1007 hPa WSW 20.9 km/h 37 km/h 57 % 0 mm 640 W/m2
16:00 22.9 °C 13.9 °C 1007 hPa WSW 20.9 km/h 37 km/h 57 % 0 mm 624 W/m2
16:05 22.8 °C 13.8 °C 1007 hPa WSW 20.9 km/h 37 km/h 57 % 0 mm 608 W/m2
16:10 22.7 °C 13.7 °C 1007 hPa SW 20.9 km/h 37 km/h 57 % 0 mm 596 W/m2
16:15 22.5 °C 13.8 °C 1007 hPa SW 20.9 km/h 37 km/h 58 % 0 mm 587 W/m2
16:21 22.5 °C 13.6 °C 1007.3 hPa SW 20.9 km/h 33.8 km/h 57 % 0 mm 571 W/m2
16:26 22.5 °C 13.6 °C 1007 hPa WSW 20.9 km/h 33.8 km/h 57 % 0 mm 566 W/m2
16:31 22.6 °C 13.4 °C 1007 hPa WSW 19.3 km/h 32.2 km/h 56 % 0 mm 559 W/m2
16:36 22.6 °C 13.4 °C 1007 hPa WSW 20.9 km/h 38.6 km/h 56 % 0 mm 536 W/m2
16:40 22.4 °C 13.4 °C 1007.3 hPa WSW 22.5 km/h 38.6 km/h 57 % 0 mm 526 W/m2
16:45 22.6 °C 13.7 °C 1007 hPa WSW 17.7 km/h 32.2 km/h 57 % 0 mm 506 W/m2
16:50 22.3 °C 13.4 °C 1007 hPa SW 19.3 km/h 33.8 km/h 57 % 0 mm 496 W/m2
16:55 22.2 °C 13.3 °C 1007 hPa SW 20.9 km/h 33.8 km/h 57 % 0 mm 492 W/m2
17:01 22.2 °C 12.7 °C 1007 hPa SW 19.3 km/h 33.8 km/h 55 % 0 mm 475 W/m2
17:06 22.1 °C 12.3 °C 1007 hPa SW 20.9 km/h 33.8 km/h 54 % 0 mm 459 W/m2
17:11 22.1 °C 12.1 °C 1007 hPa SW 22.5 km/h 38.6 km/h 53 % 0 mm 446 W/m2
17:16 22.1 °C 12.1 °C 1007 hPa SW 20.9 km/h 38.6 km/h 53 % 0 mm 441 W/m2
17:21 22 °C 11.4 °C 1007 hPa WSW 22.5 km/h 38.6 km/h 51 % 0 mm 425 W/m2
17:26 21.9 °C 10.7 °C 1007 hPa WSW 22.5 km/h 38.6 km/h 49 % 0 mm 408 W/m2
17:31 21.9 °C 10.7 °C 1007 hPa WSW 20.9 km/h 37 km/h 49 % 0 mm 392 W/m2
17:36 21.9 °C 11 °C 1007 hPa WSW 17.7 km/h 30.6 km/h 50 % 0 mm 381 W/m2
17:41 22 °C 11.1 °C 1007 hPa WSW 16.1 km/h 30.6 km/h 50 % 0 mm 364 W/m2
17:46 22.1 °C 11.5 °C 1007 hPa WSW 19.3 km/h 32.2 km/h 51 % 0 mm 350 W/m2
17:51 21.9 °C 11.6 °C 1007 hPa WSW 19.3 km/h 37 km/h 52 % 0 mm 339 W/m2
17:56 21.8 °C 11.8 °C 1007 hPa WSW 19.3 km/h 37 km/h 53 % 0 mm 325 W/m2
18:01 21.8 °C 11.8 °C 1007 hPa WSW 19.3 km/h 35.4 km/h 53 % 0 mm 308 W/m2
18:06 21.7 °C 12.3 °C 1007.3 hPa WSW 17.7 km/h 35.4 km/h 55 % 0 mm 297 W/m2
18:07 21.6 °C 12.2 °C 1007.3 hPa WSW 17.7 km/h 35.4 km/h 55 % 0 mm 290 W/m2
18:12 21.5 °C 11.8 °C 1007.3 hPa WSW 17.7 km/h 35.4 km/h 54 % 0 mm 276 W/m2
18:17 21.4 °C 12 °C 1007 hPa WSW 19.3 km/h 38.6 km/h 55 % 0 mm 264 W/m2
18:22 21.3 °C 12.2 °C 1007 hPa WSW 17.7 km/h 38.6 km/h 56 % 0 mm 253 W/m2
18:27 21.3 °C 11.9 °C 1007 hPa WSW 17.7 km/h 38.6 km/h 55 % 0 mm 236 W/m2
18:32 21.2 °C 12.1 °C 1007 hPa WSW 17.7 km/h 32.2 km/h 56 % 0 mm 225 W/m2
18:37 21.3 °C 11.9 °C 1007 hPa WSW 17.7 km/h 32.2 km/h 55 % 0 mm 209 W/m2
18:42 21.2 °C 12.1 °C 1007 hPa WSW 17.7 km/h 29 km/h 56 % 0 mm 193 W/m2
18:47 21.1 °C 11.7 °C 1007 hPa WSW 17.7 km/h 30.6 km/h 55 % 0 mm 181 W/m2
18:52 21.1 °C 12 °C 1007 hPa WSW 17.7 km/h 32.2 km/h 56 % 0 mm 171 W/m2
18:57 21 °C 11.9 °C 1007 hPa WSW 14.5 km/h 32.2 km/h 56 % 0 mm 153 W/m2
19:02 20.8 °C 11.9 °C 1007 hPa SW 12.9 km/h 24.1 km/h 57 % 0 mm 149 W/m2
19:07 20.8 °C 12.2 °C 1007.3 hPa SW 14.5 km/h 29 km/h 58 % 0 mm 146 W/m2
19:12 20.7 °C 12.1 °C 1007.3 hPa SW 14.5 km/h 29 km/h 58 % 0 mm 178 W/m2
19:17 20.6 °C 12.3 °C 1007.3 hPa SW 12.9 km/h 24.1 km/h 59 % 0 mm 84 W/m2
19:22 20.4 °C 12.1 °C 1007.3 hPa SW 17.7 km/h 32.2 km/h 59 % 0 mm 40 W/m2
19:27 20.1 °C 12.1 °C 1007.3 hPa SW 17.7 km/h 32.2 km/h 60 % 0 mm 33 W/m2
19:32 19.8 °C 12.1 °C 1007.3 hPa SW 16.1 km/h 29 km/h 61 % 0 mm 72 W/m2
19:37 19.6 °C 12.1 °C 1007.3 hPa SW 16.1 km/h 25.7 km/h 62 % 0 mm 58 W/m2
19:42 19.4 °C 12.2 °C 1007.3 hPa SSW 14.5 km/h 25.7 km/h 63 % 0 mm 25 W/m2
19:47 19.3 °C 12.3 °C 1007.3 hPa SSW 14.5 km/h 22.5 km/h 64 % 0 mm 18 W/m2
19:49 19.2 °C 12.4 °C 1007.3 hPa SSW 14.5 km/h 22.5 km/h 65 % 0 mm 18 W/m2
19:54 19 °C 12.5 °C 1007.3 hPa SW 12.9 km/h 17.7 km/h 66 % 0 mm 16 W/m2
19:59 18.8 °C 12.6 °C 1007.3 hPa SW 12.9 km/h 17.7 km/h 67 % 0 mm 14 W/m2
20:04 18.6 °C 12.8 °C 1007.3 hPa SW 12.9 km/h 17.7 km/h 69 % 0 mm 12 W/m2
20:09 18.4 °C 12.8 °C 1007.3 hPa SW 12.9 km/h 17.7 km/h 70 % 0 mm 11 W/m2
20:14 18.3 °C 12.7 °C 1007 hPa SSW 12.9 km/h 20.9 km/h 70 % 0 mm 9 W/m2
20:19 18.2 °C 12.8 °C 1007 hPa SSW 11.3 km/h 20.9 km/h 71 % 0 mm 7 W/m2
20:24 18.1 °C 12.9 °C 1007 hPa SSW 9.7 km/h 16.1 km/h 72 % 0 mm 7 W/m2
20:29 17.9 °C 13 °C 1007 hPa SSW 9.7 km/h 17.7 km/h 73 % 0 mm 5 W/m2
20:34 17.8 °C 12.9 °C 1007 hPa SSW 11.3 km/h 17.7 km/h 73 % 0 mm 0 W/m2
20:39 17.7 °C 13 °C 1007 hPa SW 12.9 km/h 20.9 km/h 74 % 0 mm 0 W/m2
20:44 17.7 °C 13.2 °C 1007 hPa SW 12.9 km/h 20.9 km/h 75 % 0 mm 0 W/m2
20:49 17.6 °C 13.1 °C 1007 hPa SW 12.9 km/h 19.3 km/h 75 % 0 mm 0 W/m2
20:54 17.6 °C 13.1 °C 1007.3 hPa SW 12.9 km/h 22.5 km/h 75 % 0 mm 0 W/m2
20:59 17.6 °C 13.5 °C 1007.3 hPa WSW 12.9 km/h 22.5 km/h 77 % 0 mm 0 W/m2
21:04 17.6 °C 13.5 °C 1007.3 hPa WSW 12.9 km/h 20.9 km/h 77 % 0 mm 0 W/m2
21:09 17.6 °C 13.5 °C 1007.3 hPa West 12.9 km/h 20.9 km/h 77 % 0 mm 0 W/m2
21:14 17.4 °C 13.7 °C 1007.3 hPa West 12.9 km/h 19.3 km/h 79 % 0 mm 0 W/m2
21:19 17.3 °C 13.6 °C 1007.3 hPa West 11.3 km/h 19.3 km/h 79 % 0 mm 0 W/m2
21:24 17.2 °C 13.7 °C 1007 hPa West 9.7 km/h 16.1 km/h 80 % 0 mm 0 W/m2
21:29 17.2 °C 13.7 °C 1007.3 hPa West 6.4 km/h 14.5 km/h 80 % 0 mm 0 W/m2
21:34 17.1 °C 13.6 °C 1007.3 hPa WSW 4.8 km/h 12.9 km/h 80 % 0 mm 0 W/m2
21:39 17.1 °C 13.8 °C 1007 hPa WSW 4.8 km/h 12.9 km/h 81 % 0 mm 0 W/m2
21:44 17 °C 13.7 °C 1007 hPa WSW 4.8 km/h 11.3 km/h 81 % 0 mm 0 W/m2
21:49 17 °C 13.7 °C 1007 hPa SSW 6.4 km/h 14.5 km/h 81 % 0 mm 0 W/m2
21:54 16.9 °C 13.6 °C 1007 hPa SSW 8 km/h 17.7 km/h 81 % 0 mm 0 W/m2
21:59 16.9 °C 13.6 °C 1007 hPa SSW 8 km/h 17.7 km/h 81 % 0 mm 0 W/m2
22:04 16.9 °C 13.6 °C 1007 hPa SSW 8 km/h 17.7 km/h 81 % 0 mm 0 W/m2
22:09 17 °C 13.5 °C 1007 hPa SSW 8 km/h 17.7 km/h 80 % 0 mm 0 W/m2
22:14 17 °C 13.5 °C 1006.7 hPa SW 6.4 km/h 12.9 km/h 80 % 0 mm 0 W/m2
22:19 17 °C 13.5 °C 1007 hPa SW 6.4 km/h 14.5 km/h 80 % 0 mm 0 W/m2
22:24 17 °C 13.7 °C 1007 hPa SW 8 km/h 14.5 km/h 81 % 0 mm 0 W/m2
22:29 16.9 °C 14 °C 1007 hPa WSW 11.3 km/h 19.3 km/h 83 % 0.51 mm 0 W/m2
22:34 16.6 °C 14.1 °C 1006.7 hPa WSW 11.3 km/h 19.3 km/h 85 % 0.76 mm 0 W/m2
22:40 16.3 °C 13.9 °C 1006.7 hPa WSW 11.3 km/h 17.7 km/h 86 % 0.76 mm 0 W/m2
22:45 16.1 °C 13.9 °C 1006.7 hPa WSW 8 km/h 17.7 km/h 87 % 0.76 mm 0 W/m2
22:50 15.9 °C 13.9 °C 1006.7 hPa SW 4.8 km/h 12.9 km/h 88 % 0.76 mm 0 W/m2
22:55 15.8 °C 14 °C 1007 hPa SW 4.8 km/h 12.9 km/h 89 % 0.76 mm 0 W/m2
23:00 15.7 °C 13.9 °C 1007 hPa SW 9.7 km/h 24.1 km/h 89 % 1.27 mm 0 W/m2
23:05 15.6 °C 13.8 °C 1007 hPa WSW 12.9 km/h 24.1 km/h 89 % 1.52 mm 0 W/m2
23:10 15.4 °C 13.8 °C 1007 hPa SW 12.9 km/h 19.3 km/h 90 % 2.03 mm 0 W/m2
23:15 15.3 °C 13.8 °C 1007 hPa SW 12.9 km/h 22.5 km/h 91 % 2.03 mm 0 W/m2
23:20 15.2 °C 13.7 °C 1007 hPa SW 12.9 km/h 22.5 km/h 91 % 2.29 mm 0 W/m2
23:25 15.1 °C 13.7 °C 1007 hPa SW 11.3 km/h 17.7 km/h 91 % 2.03 mm 0 W/m2
23:30 15 °C 13.6 °C 1007 hPa SW 9.7 km/h 14.5 km/h 91 % 1.78 mm 0 W/m2
23:35 14.9 °C 13.4 °C 1007 hPa SW 9.7 km/h 14.5 km/h 91 % 1.52 mm 0 W/m2
23:40 14.9 °C 13.4 °C 1006.7 hPa SW 9.7 km/h 14.5 km/h 91 % 1.52 mm 0 W/m2
23:45 14.9 °C 13.6 °C 1006.7 hPa SW 6.4 km/h 14.5 km/h 92 % 1.52 mm 0 W/m2
23:50 14.9 °C 13.6 °C 1006.3 hPa South 4.8 km/h 9.7 km/h 92 % 1.52 mm 0 W/m2
23:55 14.9 °C 13.6 °C 1006.3 hPa SSE 3.2 km/h 8 km/h 92 % 1.52 mm 0 W/m2
Delerius-Weather
Compliments of Weather Underground - 2.25 mb

Data updates at regular intervals.